sensor_id;sensor_type;location;lat;lon;timestamp;P1;durP1;ratioP1;P2;durP2;ratioP2
75356;SDS011;63946;51.986;5.930;2023-02-22T06:52:53;45.38;;;18.05;;
75356;SDS011;63946;51.986;5.930;2023-02-22T06:55:27;36.03;;;15.10;;
75356;SDS011;63946;51.986;5.930;2023-02-22T06:58:00;51.55;;;17.23;;
75356;SDS011;63946;51.986;5.930;2023-02-22T07:00:30;69.05;;;20.55;;
75356;SDS011;63946;51.986;5.930;2023-02-22T07:03:00;77.22;;;20.50;;
75356;SDS011;63946;51.986;5.930;2023-02-22T07:05:38;66.47;;;17.50;;
75356;SDS011;63946;51.986;5.930;2023-02-22T07:08:15;70.03;;;19.20;;
75356;SDS011;63946;51.986;5.930;2023-02-22T07:10:45;47.22;;;17.05;;
75356;SDS011;63946;51.986;5.930;2023-02-22T07:13:17;49.60;;;19.13;;
75356;SDS011;63946;51.986;5.930;2023-02-22T07:16:01;62.17;;;20.20;;
75356;SDS011;63946;51.986;5.930;2023-02-22T07:22:46;40.28;;;16.40;;
75356;SDS011;63946;51.986;5.930;2023-02-22T07:29:10;62.85;;;18.15;;
75356;SDS011;63946;51.986;5.930;2023-02-22T07:32:12;65.82;;;19.08;;
75356;SDS011;63946;51.986;5.930;2023-02-22T07:34:43;49.58;;;17.80;;
75356;SDS011;63946;51.986;5.930;2023-02-22T07:37:14;35.70;;;14.38;;
75356;SDS011;63946;51.986;5.930;2023-02-22T07:39:49;38.47;;;14.88;;
75356;SDS011;63946;51.986;5.930;2023-02-22T07:42:49;52.47;;;16.60;;
75356;SDS011;63946;51.986;5.930;2023-02-22T07:45:23;40.90;;;14.38;;
75356;SDS011;63946;51.986;5.930;2023-02-22T07:48:12;54.95;;;17.20;;
75356;SDS011;63946;51.986;5.930;2023-02-22T07:50:45;43.40;;;16.63;;
75356;SDS011;63946;51.986;5.930;2023-02-22T07:53:54;34.83;;;15.52;;
75356;SDS011;63946;51.986;5.930;2023-02-22T07:56:47;49.97;;;17.95;;
75356;SDS011;63946;51.986;5.930;2023-02-22T07:59:28;38.90;;;14.60;;
75356;SDS011;63946;51.986;5.930;2023-02-22T08:02:10;37.80;;;16.85;;
75356;SDS011;63946;51.986;5.930;2023-02-22T08:05:05;42.75;;;17.05;;
75356;SDS011;63946;51.986;5.930;2023-02-22T08:08:07;50.22;;;17.65;;
75356;SDS011;63946;51.986;5.930;2023-02-22T08:10:42;37.20;;;14.90;;
75356;SDS011;63946;51.986;5.930;2023-02-22T08:13:21;43.22;;;16.30;;
75356;SDS011;63946;51.986;5.930;2023-02-22T08:16:04;35.90;;;14.85;;
75356;SDS011;63946;51.986;5.930;2023-02-22T08:18:38;39.10;;;15.90;;
75356;SDS011;63946;51.986;5.930;2023-02-22T08:21:15;35.10;;;14.82;;
75356;SDS011;63946;51.986;5.930;2023-02-22T08:24:01;35.17;;;14.82;;
75356;SDS011;63946;51.986;5.930;2023-02-22T08:26:36;34.22;;;14.73;;
75356;SDS011;63946;51.986;5.930;2023-02-22T08:33:03;34.00;;;13.88;;
75356;SDS011;63946;51.986;5.930;2023-02-22T08:40:17;38.75;;;15.90;;
75356;SDS011;63946;51.986;5.930;2023-02-22T08:44:11;41.92;;;17.00;;
75356;SDS011;63946;51.986;5.930;2023-02-22T08:51:26;42.55;;;16.20;;
75356;SDS011;63946;51.986;5.930;2023-02-22T08:58:04;33.60;;;14.15;;
75356;SDS011;63946;51.986;5.930;2023-02-22T09:00:59;42.97;;;16.63;;
75356;SDS011;63946;51.986;5.930;2023-02-22T09:04:19;37.55;;;16.02;;
75356;SDS011;63946;51.986;5.930;2023-02-22T09:07:23;44.67;;;18.58;;
75356;SDS011;63946;51.986;5.930;2023-02-22T09:10:17;31.45;;;14.00;;
75356;SDS011;63946;51.986;5.930;2023-02-22T09:13:26;33.15;;;14.20;;
75356;SDS011;63946;51.986;5.930;2023-02-22T09:16:06;47.10;;;18.65;;
75356;SDS011;63946;51.986;5.930;2023-02-22T09:19:08;35.75;;;16.75;;
75356;SDS011;63946;51.986;5.930;2023-02-22T09:21:58;39.75;;;17.48;;
75356;SDS011;63946;51.986;5.930;2023-02-22T09:25:25;53.10;;;22.00;;
75356;SDS011;63946;51.986;5.930;2023-02-22T09:28:08;48.55;;;19.50;;
75356;SDS011;63946;51.986;5.930;2023-02-22T09:31:14;40.47;;;18.15;;
75356;SDS011;63946;51.986;5.930;2023-02-22T09:34:09;44.10;;;17.35;;
75356;SDS011;63946;51.986;5.930;2023-02-22T09:40:17;39.15;;;16.95;;
75356;SDS011;63946;51.986;5.930;2023-02-22T09:54:13;38.70;;;15.55;;
75356;SDS011;63946;51.986;5.930;2023-02-22T10:19:00;35.90;;;15.93;;
75356;SDS011;63946;51.986;5.930;2023-02-22T10:25:17;35.72;;;14.70;;
75356;SDS011;63946;51.986;5.930;2023-02-22T10:35:53;32.88;;;16.00;;
75356;SDS011;63946;51.986;5.930;2023-02-22T10:42:26;35.78;;;16.52;;
75356;SDS011;63946;51.986;5.930;2023-02-22T10:52:43;32.33;;;14.68;;
75356;SDS011;63946;51.986;5.930;2023-02-22T10:56:26;33.15;;;15.32;;
75356;SDS011;63946;51.986;5.930;2023-02-22T10:59:49;32.97;;;15.43;;
75356;SDS011;63946;51.986;5.930;2023-02-22T11:06:48;31.25;;;14.32;;
75356;SDS011;63946;51.986;5.930;2023-02-22T11:43:39;33.00;;;16.67;;
75356;SDS011;63946;51.986;5.930;2023-02-22T15:15:37;19.48;;;11.68;;
75356;SDS011;63946;51.986;5.930;2023-02-22T15:19:03;21.17;;;11.77;;
75356;SDS011;63946;51.986;5.930;2023-02-22T15:29:28;19.42;;;11.20;;
75356;SDS011;63946;51.986;5.930;2023-02-22T15:32:29;16.63;;;10.38;;
75356;SDS011;63946;51.986;5.930;2023-02-22T15:35:57;15.90;;;9.77;;
75356;SDS011;63946;51.986;5.930;2023-02-22T15:38:37;18.92;;;13.23;;
75356;SDS011;63946;51.986;5.930;2023-02-22T15:44:58;19.73;;;12.75;;
75356;SDS011;63946;51.986;5.930;2023-02-22T15:51:14;23.27;;;13.73;;
75356;SDS011;63946;51.986;5.930;2023-02-22T15:54:17;20.23;;;11.57;;
75356;SDS011;63946;51.986;5.930;2023-02-22T15:57:05;19.17;;;12.73;;
75356;SDS011;63946;51.986;5.930;2023-02-22T16:23:26;16.67;;;11.35;;
75356;SDS011;63946;51.986;5.930;2023-02-22T16:26:29;16.77;;;10.63;;
75356;SDS011;63946;51.986;5.930;2023-02-22T16:29:35;18.85;;;11.63;;
75356;SDS011;63946;51.986;5.930;2023-02-22T16:32:33;15.98;;;11.10;;
75356;SDS011;63946;51.986;5.930;2023-02-22T16:35:39;19.42;;;13.27;;
75356;SDS011;63946;51.986;5.930;2023-02-22T16:38:50;19.85;;;12.52;;
75356;SDS011;63946;51.986;5.930;2023-02-22T16:41:58;18.42;;;12.52;;
75356;SDS011;63946;51.986;5.930;2023-02-22T16:45:16;13.80;;;10.00;;
75356;SDS011;63946;51.986;5.930;2023-02-22T16:47:56;16.23;;;10.80;;
75356;SDS011;63946;51.986;5.930;2023-02-22T16:50:34;17.80;;;12.45;;
75356;SDS011;63946;51.986;5.930;2023-02-22T16:53:16;16.30;;;10.80;;
75356;SDS011;63946;51.986;5.930;2023-02-22T16:56:36;18.95;;;11.00;;
75356;SDS011;63946;51.986;5.930;2023-02-22T16:59:39;22.55;;;16.15;;
75356;SDS011;63946;51.986;5.930;2023-02-22T17:06:35;19.98;;;12.32;;
75356;SDS011;63946;51.986;5.930;2023-02-22T17:09:49;14.68;;;11.00;;
75356;SDS011;63946;51.986;5.930;2023-02-22T17:12:54;24.23;;;16.08;;
75356;SDS011;63946;51.986;5.930;2023-02-22T17:15:32;23.80;;;15.43;;
75356;SDS011;63946;51.986;5.930;2023-02-22T17:25:19;22.52;;;13.93;;
75356;SDS011;63946;51.986;5.930;2023-02-22T17:28:35;17.88;;;12.57;;
75356;SDS011;63946;51.986;5.930;2023-02-22T17:31:44;21.00;;;14.43;;
75356;SDS011;63946;51.986;5.930;2023-02-22T17:35:57;24.00;;;16.08;;
75356;SDS011;63946;51.986;5.930;2023-02-22T17:38:38;23.17;;;15.02;;
75356;SDS011;63946;51.986;5.930;2023-02-22T18:03:56;22.40;;;13.95;;
75356;SDS011;63946;51.986;5.930;2023-02-22T18:07:33;23.02;;;14.85;;
75356;SDS011;63946;51.986;5.930;2023-02-22T18:18:37;22.10;;;14.27;;
75356;SDS011;63946;51.986;5.930;2023-02-22T18:25:31;21.65;;;14.25;;
75356;SDS011;63946;51.986;5.930;2023-02-22T18:29:13;21.45;;;14.43;;
75356;SDS011;63946;51.986;5.930;2023-02-22T18:40:29;22.00;;;15.25;;
75356;SDS011;63946;51.986;5.930;2023-02-22T18:47:13;26.45;;;18.08;;
75356;SDS011;63946;51.986;5.930;2023-02-22T18:54:28;31.92;;;19.73;;
75356;SDS011;63946;51.986;5.930;2023-02-22T19:01:18;35.83;;;23.20;;
75356;SDS011;63946;51.986;5.930;2023-02-22T19:04:06;36.47;;;23.27;;
75356;SDS011;63946;51.986;5.930;2023-02-22T19:21:29;42.33;;;26.95;;
75356;SDS011;63946;51.986;5.930;2023-02-22T19:25:04;47.45;;;28.23;;
75356;SDS011;63946;51.986;5.930;2023-02-22T19:28:26;41.42;;;26.35;;
75356;SDS011;63946;51.986;5.930;2023-02-22T19:34:22;48.78;;;27.80;;
75356;SDS011;63946;51.986;5.930;2023-02-22T19:44:01;46.78;;;27.70;;
75356;SDS011;63946;51.986;5.930;2023-02-22T19:46:45;62.50;;;34.67;;
75356;SDS011;63946;51.986;5.930;2023-02-22T19:49:22;55.10;;;30.05;;
75356;SDS011;63946;51.986;5.930;2023-02-22T19:55:29;57.38;;;29.35;;
75356;SDS011;63946;51.986;5.930;2023-02-22T19:58:28;56.03;;;31.10;;
75356;SDS011;63946;51.986;5.930;2023-02-22T20:05:59;48.58;;;29.27;;
75356;SDS011;63946;51.986;5.930;2023-02-22T20:08:47;54.33;;;30.35;;
75356;SDS011;63946;51.986;5.930;2023-02-22T20:12:01;48.95;;;28.40;;
75356;SDS011;63946;51.986;5.930;2023-02-22T20:14:58;52.63;;;30.00;;
75356;SDS011;63946;51.986;5.930;2023-02-22T20:18:03;55.63;;;33.10;;
75356;SDS011;63946;51.986;5.930;2023-02-22T20:21:11;48.85;;;29.48;;
75356;SDS011;63946;51.986;5.930;2023-02-22T20:24:41;52.30;;;29.95;;
75356;SDS011;63946;51.986;5.930;2023-02-22T20:27:28;58.10;;;32.35;;
75356;SDS011;63946;51.986;5.930;2023-02-22T20:30:02;49.78;;;31.15;;
75356;SDS011;63946;51.986;5.930;2023-02-22T20:36:59;48.05;;;28.52;;
75356;SDS011;63946;51.986;5.930;2023-02-22T20:40:38;48.10;;;28.92;;
75356;SDS011;63946;51.986;5.930;2023-02-22T20:56:12;58.58;;;32.53;;
75356;SDS011;63946;51.986;5.930;2023-02-22T20:59:02;59.47;;;32.85;;
75356;SDS011;63946;51.986;5.930;2023-02-22T21:01:47;64.93;;;35.83;;
75356;SDS011;63946;51.986;5.930;2023-02-22T21:04:47;58.63;;;32.03;;
75356;SDS011;63946;51.986;5.930;2023-02-22T21:07:40;54.55;;;31.60;;
75356;SDS011;63946;51.986;5.930;2023-02-22T21:10:11;62.67;;;34.63;;
75356;SDS011;63946;51.986;5.930;2023-02-22T21:12:40;59.95;;;33.67;;
75356;SDS011;63946;51.986;5.930;2023-02-22T21:15:15;61.22;;;34.40;;
75356;SDS011;63946;51.986;5.930;2023-02-22T21:17:57;58.13;;;32.58;;
75356;SDS011;63946;51.986;5.930;2023-02-22T21:20:40;50.33;;;30.25;;
75356;SDS011;63946;51.986;5.930;2023-02-22T21:23:40;55.70;;;31.50;;
75356;SDS011;63946;51.986;5.930;2023-02-22T21:26:49;64.97;;;32.67;;
75356;SDS011;63946;51.986;5.930;2023-02-22T21:29:28;55.42;;;32.22;;
75356;SDS011;63946;51.986;5.930;2023-02-22T21:32:00;66.15;;;34.05;;
75356;SDS011;63946;51.986;5.930;2023-02-22T21:34:45;64.97;;;33.33;;
75356;SDS011;63946;51.986;5.930;2023-02-22T21:37:21;60.15;;;32.67;;
75356;SDS011;63946;51.986;5.930;2023-02-22T21:40:00;58.65;;;31.45;;
75356;SDS011;63946;51.986;5.930;2023-02-22T21:43:01;71.45;;;33.17;;
75356;SDS011;63946;51.986;5.930;2023-02-22T21:45:36;72.07;;;36.15;;
75356;SDS011;63946;51.986;5.930;2023-02-22T21:48:18;59.72;;;32.13;;
